sensor_id;sensor_type;location;lat;lon;timestamp;temperature;humidity
67641;SHT31;54434;50.096;20.082;2023-06-22T00:03:02;21.01;77.58
67641;SHT31;54434;50.096;20.082;2023-06-22T00:05:39;21.01;77.65
67641;SHT31;54434;50.096;20.082;2023-06-22T00:08:16;20.99;77.67
67641;SHT31;54434;50.096;20.082;2023-06-22T00:10:53;20.95;77.86
67641;SHT31;54434;50.096;20.082;2023-06-22T00:13:29;20.93;77.94
67641;SHT31;54434;50.096;20.082;2023-06-22T00:16:06;20.91;77.78
67641;SHT31;54434;50.096;20.082;2023-06-22T00:18:43;20.89;77.88
67641;SHT31;54434;50.096;20.082;2023-06-22T00:21:21;20.86;78.05
67641;SHT31;54434;50.096;20.082;2023-06-22T00:23:57;20.84;78.00
67641;SHT31;54434;50.096;20.082;2023-06-22T00:26:34;20.83;78.07
67641;SHT31;54434;50.096;20.082;2023-06-22T00:29:12;20.81;78.13
67641;SHT31;54434;50.096;20.082;2023-06-22T00:31:50;20.81;78.18
67641;SHT31;54434;50.096;20.082;2023-06-22T00:34:27;20.81;78.17
67641;SHT31;54434;50.096;20.082;2023-06-22T00:37:05;20.80;78.10
67641;SHT31;54434;50.096;20.082;2023-06-22T00:39:43;20.79;78.03
67641;SHT31;54434;50.096;20.082;2023-06-22T00:42:20;20.78;78.07
67641;SHT31;54434;50.096;20.082;2023-06-22T00:44:57;20.77;78.00
67641;SHT31;54434;50.096;20.082;2023-06-22T00:47:34;20.75;78.14
67641;SHT31;54434;50.096;20.082;2023-06-22T00:50:15;20.72;78.26
67641;SHT31;54434;50.096;20.082;2023-06-22T00:52:58;20.68;78.37
67641;SHT31;54434;50.096;20.082;2023-06-22T00:55:43;20.65;78.40
67641;SHT31;54434;50.096;20.082;2023-06-22T00:58:23;20.63;78.30
67641;SHT31;54434;50.096;20.082;2023-06-22T01:01:00;20.62;78.21
67641;SHT31;54434;50.096;20.082;2023-06-22T01:03:36;20.60;78.20
67641;SHT31;54434;50.096;20.082;2023-06-22T01:06:18;20.59;78.21
67641;SHT31;54434;50.096;20.082;2023-06-22T01:09:14;20.56;78.31
67641;SHT31;54434;50.096;20.082;2023-06-22T01:11:59;20.55;78.36
67641;SHT31;54434;50.096;20.082;2023-06-22T01:14:40;20.52;78.39
67641;SHT31;54434;50.096;20.082;2023-06-22T01:17:24;20.51;78.43
67641;SHT31;54434;50.096;20.082;2023-06-22T01:20:06;20.49;78.48
67641;SHT31;54434;50.096;20.082;2023-06-22T01:22:55;20.46;78.56
67641;SHT31;54434;50.096;20.082;2023-06-22T01:25:47;20.41;78.78
67641;SHT31;54434;50.096;20.082;2023-06-22T01:28:48;20.37;78.86
67641;SHT31;54434;50.096;20.082;2023-06-22T01:31:28;20.33;78.85
67641;SHT31;54434;50.096;20.082;2023-06-22T01:34:07;20.34;78.80
67641;SHT31;54434;50.096;20.082;2023-06-22T01:36:45;20.32;78.86
67641;SHT31;54434;50.096;20.082;2023-06-22T01:39:23;20.30;78.91
67641;SHT31;54434;50.096;20.082;2023-06-22T01:42:01;20.28;78.83
67641;SHT31;54434;50.096;20.082;2023-06-22T01:44:39;20.27;78.81
67641;SHT31;54434;50.096;20.082;2023-06-22T01:47:18;20.27;78.85
67641;SHT31;54434;50.096;20.082;2023-06-22T01:49:56;20.25;78.91
67641;SHT31;54434;50.096;20.082;2023-06-22T01:52:33;20.23;78.94
67641;SHT31;54434;50.096;20.082;2023-06-22T01:55:10;20.22;79.00
67641;SHT31;54434;50.096;20.082;2023-06-22T01:57:46;20.20;78.98
67641;SHT31;54434;50.096;20.082;2023-06-22T02:00:23;20.18;79.00
67641;SHT31;54434;50.096;20.082;2023-06-22T02:03:08;20.17;79.00
67641;SHT31;54434;50.096;20.082;2023-06-22T02:05:50;20.15;78.97
67641;SHT31;54434;50.096;20.082;2023-06-22T02:08:32;20.14;79.02
67641;SHT31;54434;50.096;20.082;2023-06-22T02:11:21;20.11;79.05
67641;SHT31;54434;50.096;20.082;2023-06-22T02:14:00;20.10;79.15
67641;SHT31;54434;50.096;20.082;2023-06-22T02:16:38;20.07;79.28
67641;SHT31;54434;50.096;20.082;2023-06-22T02:19:15;20.04;79.34
67641;SHT31;54434;50.096;20.082;2023-06-22T02:21:57;20.00;79.40
67641;SHT31;54434;50.096;20.082;2023-06-22T02:24:32;19.97;79.49
67641;SHT31;54434;50.096;20.082;2023-06-22T02:27:08;19.95;79.50
67641;SHT31;54434;50.096;20.082;2023-06-22T02:29:45;19.93;79.54
67641;SHT31;54434;50.096;20.082;2023-06-22T02:32:21;19.90;79.61
67641;SHT31;54434;50.096;20.082;2023-06-22T02:34:58;19.87;79.73
67641;SHT31;54434;50.096;20.082;2023-06-22T02:37:37;19.84;79.83
67641;SHT31;54434;50.096;20.082;2023-06-22T02:40:14;19.80;79.94
67641;SHT31;54434;50.096;20.082;2023-06-22T02:42:50;19.78;79.98
67641;SHT31;54434;50.096;20.082;2023-06-22T02:45:27;19.76;80.06
67641;SHT31;54434;50.096;20.082;2023-06-22T02:48:05;19.72;80.24
67641;SHT31;54434;50.096;20.082;2023-06-22T02:50:41;19.72;80.23
67641;SHT31;54434;50.096;20.082;2023-06-22T02:53:18;19.72;80.29
67641;SHT31;54434;50.096;20.082;2023-06-22T02:55:55;19.72;80.30
67641;SHT31;54434;50.096;20.082;2023-06-22T02:58:34;19.71;80.32
67641;SHT31;54434;50.096;20.082;2023-06-22T03:01:13;19.71;80.33
67641;SHT31;54434;50.096;20.082;2023-06-22T03:03:56;19.71;80.38
67641;SHT31;54434;50.096;20.082;2023-06-22T03:06:33;19.70;80.42
67641;SHT31;54434;50.096;20.082;2023-06-22T03:09:13;19.70;80.47
67641;SHT31;54434;50.096;20.082;2023-06-22T03:11:49;19.71;80.40
67641;SHT31;54434;50.096;20.082;2023-06-22T03:14:27;19.72;80.40
67641;SHT31;54434;50.096;20.082;2023-06-22T03:17:04;19.76;80.34
67641;SHT31;54434;50.096;20.082;2023-06-22T03:19:41;19.78;80.35
67641;SHT31;54434;50.096;20.082;2023-06-22T03:22:17;19.84;80.27
67641;SHT31;54434;50.096;20.082;2023-06-22T03:24:53;19.89;80.14
67641;SHT31;54434;50.096;20.082;2023-06-22T03:27:30;19.99;79.98
67641;SHT31;54434;50.096;20.082;2023-06-22T03:30:09;20.08;79.80
67641;SHT31;54434;50.096;20.082;2023-06-22T03:32:46;20.12;79.60
67641;SHT31;54434;50.096;20.082;2023-06-22T03:35:22;20.19;79.51
67641;SHT31;54434;50.096;20.082;2023-06-22T03:37:59;20.29;79.31
67641;SHT31;54434;50.096;20.082;2023-06-22T03:40:36;20.39;79.06
67641;SHT31;54434;50.096;20.082;2023-06-22T03:43:12;20.49;78.81
67641;SHT31;54434;50.096;20.082;2023-06-22T03:45:49;20.61;78.37
67641;SHT31;54434;50.096;20.082;2023-06-22T03:48:26;20.61;78.21
67641;SHT31;54434;50.096;20.082;2023-06-22T03:51:03;20.66;78.17
67641;SHT31;54434;50.096;20.082;2023-06-22T03:53:39;20.78;77.84
67641;SHT31;54434;50.096;20.082;2023-06-22T03:56:16;20.86;77.60
67641;SHT31;54434;50.096;20.082;2023-06-22T03:58:53;20.88;77.59
67641;SHT31;54434;50.096;20.082;2023-06-22T04:01:29;20.95;77.47
67641;SHT31;54434;50.096;20.082;2023-06-22T04:04:07;21.03;77.38
67641;SHT31;54434;50.096;20.082;2023-06-22T04:06:43;21.10;77.02
67641;SHT31;54434;50.096;20.082;2023-06-22T04:09:19;21.19;76.98
67641;SHT31;54434;50.096;20.082;2023-06-22T04:11:56;21.45;76.30
67641;SHT31;54434;50.096;20.082;2023-06-22T04:14:33;21.67;75.74
67641;SHT31;54434;50.096;20.082;2023-06-22T04:17:09;21.97;75.21
67641;SHT31;54434;50.096;20.082;2023-06-22T04:19:46;22.44;74.17
67641;SHT31;54434;50.096;20.082;2023-06-22T04:22:23;22.93;72.77
67641;SHT31;54434;50.096;20.082;2023-06-22T04:24:59;23.35;72.09
67641;SHT31;54434;50.096;20.082;2023-06-22T04:27:37;23.79;70.86
67641;SHT31;54434;50.096;20.082;2023-06-22T04:30:14;24.23;69.90
67641;SHT31;54434;50.096;20.082;2023-06-22T04:32:51;24.67;68.50
67641;SHT31;54434;50.096;20.082;2023-06-22T04:35:30;25.12;67.38
67641;SHT31;54434;50.096;20.082;2023-06-22T04:38:06;25.80;65.57
67641;SHT31;54434;50.096;20.082;2023-06-22T04:40:45;26.47;63.63
67641;SHT31;54434;50.096;20.082;2023-06-22T04:43:21;27.05;62.52
67641;SHT31;54434;50.096;20.082;2023-06-22T04:46:02;27.60;61.05
67641;SHT31;54434;50.096;20.082;2023-06-22T04:48:38;28.00;59.38
67641;SHT31;54434;50.096;20.082;2023-06-22T04:51:14;28.17;58.46
67641;SHT31;54434;50.096;20.082;2023-06-22T04:53:53;28.44;57.92
67641;SHT31;54434;50.096;20.082;2023-06-22T04:56:32;28.80;57.15
67641;SHT31;54434;50.096;20.082;2023-06-22T04:59:12;28.99;56.39
67641;SHT31;54434;50.096;20.082;2023-06-22T05:01:50;29.25;55.61
67641;SHT31;54434;50.096;20.082;2023-06-22T05:04:27;29.52;54.74
67641;SHT31;54434;50.096;20.082;2023-06-22T05:07:05;29.69;53.74
67641;SHT31;54434;50.096;20.082;2023-06-22T05:09:42;29.72;53.79
67641;SHT31;54434;50.096;20.082;2023-06-22T05:12:18;30.08;53.32
67641;SHT31;54434;50.096;20.082;2023-06-22T05:14:54;30.43;52.44
67641;SHT31;54434;50.096;20.082;2023-06-22T05:17:31;30.68;51.64
67641;SHT31;54434;50.096;20.082;2023-06-22T05:20:10;30.91;51.69
67641;SHT31;54434;50.096;20.082;2023-06-22T05:22:50;31.21;50.54
67641;SHT31;54434;50.096;20.082;2023-06-22T05:25:26;31.32;50.74
67641;SHT31;54434;50.096;20.082;2023-06-22T05:28:04;31.56;50.18
67641;SHT31;54434;50.096;20.082;2023-06-22T05:30:43;31.71;49.74
67641;SHT31;54434;50.096;20.082;2023-06-22T05:33:19;31.80;49.70
67641;SHT31;54434;50.096;20.082;2023-06-22T05:35:56;31.73;49.65
67641;SHT31;54434;50.096;20.082;2023-06-22T05:38:32;31.71;49.55
67641;SHT31;54434;50.096;20.082;2023-06-22T05:41:09;31.68;49.87
67641;SHT31;54434;50.096;20.082;2023-06-22T05:43:46;31.83;49.81
67641;SHT31;54434;50.096;20.082;2023-06-22T05:46:22;31.91;49.70
67641;SHT31;54434;50.096;20.082;2023-06-22T05:48:59;32.06;49.20
67641;SHT31;54434;50.096;20.082;2023-06-22T05:51:36;32.33;48.98
67641;SHT31;54434;50.096;20.082;2023-06-22T05:54:13;32.51;48.58
67641;SHT31;54434;50.096;20.082;2023-06-22T05:56:49;32.68;48.30
67641;SHT31;54434;50.096;20.082;2023-06-22T05:59:26;32.65;47.52
67641;SHT31;54434;50.096;20.082;2023-06-22T06:02:02;32.71;47.72
67641;SHT31;54434;50.096;20.082;2023-06-22T06:04:40;32.66;47.40
67641;SHT31;54434;50.096;20.082;2023-06-22T06:07:16;32.51;47.82
67641;SHT31;54434;50.096;20.082;2023-06-22T06:09:53;32.50;48.57
67641;SHT31;54434;50.096;20.082;2023-06-22T06:12:30;32.71;48.14
67641;SHT31;54434;50.096;20.082;2023-06-22T06:15:08;32.86;48.03
67641;SHT31;54434;50.096;20.082;2023-06-22T06:17:49;33.08;47.72
67641;SHT31;54434;50.096;20.082;2023-06-22T06:20:27;33.20;47.57
67641;SHT31;54434;50.096;20.082;2023-06-22T06:23:04;33.24;47.07
67641;SHT31;54434;50.096;20.082;2023-06-22T06:25:41;33.35;46.91
67641;SHT31;54434;50.096;20.082;2023-06-22T06:28:17;33.24;47.19
67641;SHT31;54434;50.096;20.082;2023-06-22T06:30:55;33.35;47.61
67641;SHT31;54434;50.096;20.082;2023-06-22T06:33:31;33.39;46.56
67641;SHT31;54434;50.096;20.082;2023-06-22T06:36:08;33.24;47.21
67641;SHT31;54434;50.096;20.082;2023-06-22T06:38:45;33.35;47.19
67641;SHT31;54434;50.096;20.082;2023-06-22T06:41:21;33.42;47.20
67641;SHT31;54434;50.096;20.082;2023-06-22T06:43:58;33.45;47.40
67641;SHT31;54434;50.096;20.082;2023-06-22T06:46:34;33.36;47.37
67641;SHT31;54434;50.096;20.082;2023-06-22T06:49:11;33.33;47.64
67641;SHT31;54434;50.096;20.082;2023-06-22T06:51:48;33.29;47.85
67641;SHT31;54434;50.096;20.082;2023-06-22T06:54:25;33.35;47.95
67641;SHT31;54434;50.096;20.082;2023-06-22T06:57:02;33.60;47.69
67641;SHT31;54434;50.096;20.082;2023-06-22T06:59:46;33.69;47.35
67641;SHT31;54434;50.096;20.082;2023-06-22T07:02:23;33.69;47.09
67641;SHT31;54434;50.096;20.082;2023-06-22T07:05:00;33.83;46.76
67641;SHT31;54434;50.096;20.082;2023-06-22T07:07:38;33.85;46.08
67641;SHT31;54434;50.096;20.082;2023-06-22T07:10:15;33.54;46.68
67641;SHT31;54434;50.096;20.082;2023-06-22T07:12:53;33.48;47.88
67641;SHT31;54434;50.096;20.082;2023-06-22T07:15:29;33.63;47.73
67641;SHT31;54434;50.096;20.082;2023-06-22T07:18:06;33.68;47.13
67641;SHT31;54434;50.096;20.082;2023-06-22T07:20:43;33.75;46.98
67641;SHT31;54434;50.096;20.082;2023-06-22T07:23:19;33.37;46.88
67641;SHT31;54434;50.096;20.082;2023-06-22T07:25:56;33.20;48.40
67641;SHT31;54434;50.096;20.082;2023-06-22T07:28:33;33.23;48.25
67641;SHT31;54434;50.096;20.082;2023-06-22T07:31:12;33.12;48.15
67641;SHT31;54434;50.096;20.082;2023-06-22T07:33:49;32.98;48.12
67641;SHT31;54434;50.096;20.082;2023-06-22T07:36:25;32.72;48.57
67641;SHT31;54434;50.096;20.082;2023-06-22T07:39:02;32.57;49.47
67641;SHT31;54434;50.096;20.082;2023-06-22T07:41:40;32.85;49.56
67641;SHT31;54434;50.096;20.082;2023-06-22T07:44:16;33.20;49.43
67641;SHT31;54434;50.096;20.082;2023-06-22T07:46:53;33.46;47.67
67641;SHT31;54434;50.096;20.082;2023-06-22T07:49:30;33.24;47.21
67641;SHT31;54434;50.096;20.082;2023-06-22T07:52:07;33.47;47.37
67641;SHT31;54434;50.096;20.082;2023-06-22T07:54:44;33.41;46.62
67641;SHT31;54434;50.096;20.082;2023-06-22T07:57:21;33.49;46.58
67641;SHT31;54434;50.096;20.082;2023-06-22T08:00:06;33.56;46.11
67641;SHT31;54434;50.096;20.082;2023-06-22T08:02:49;33.53;46.42
67641;SHT31;54434;50.096;20.082;2023-06-22T08:05:26;33.52;46.19
67641;SHT31;54434;50.096;20.082;2023-06-22T08:08:03;33.57;46.50
67641;SHT31;54434;50.096;20.082;2023-06-22T08:10:40;33.68;45.91
67641;SHT31;54434;50.096;20.082;2023-06-22T08:13:16;33.67;45.74
67641;SHT31;54434;50.096;20.082;2023-06-22T08:15:53;33.70;46.58
67641;SHT31;54434;50.096;20.082;2023-06-22T08:18:29;33.91;46.19
67641;SHT31;54434;50.096;20.082;2023-06-22T08:21:06;33.58;46.40
67641;SHT31;54434;50.096;20.082;2023-06-22T08:23:43;33.33;47.37
67641;SHT31;54434;50.096;20.082;2023-06-22T08:26:20;32.94;47.64
67641;SHT31;54434;50.096;20.082;2023-06-22T08:28:56;32.47;47.82
67641;SHT31;54434;50.096;20.082;2023-06-22T08:31:33;32.25;48.59
67641;SHT31;54434;50.096;20.082;2023-06-22T08:34:10;32.14;49.18
67641;SHT31;54434;50.096;20.082;2023-06-22T08:36:48;32.07;49.85
67641;SHT31;54434;50.096;20.082;2023-06-22T08:39:25;31.83;49.70
67641;SHT31;54434;50.096;20.082;2023-06-22T08:42:05;31.56;50.45
67641;SHT31;54434;50.096;20.082;2023-06-22T08:44:42;31.53;50.49
67641;SHT31;54434;50.096;20.082;2023-06-22T08:47:19;31.50;50.20
67641;SHT31;54434;50.096;20.082;2023-06-22T08:49:56;31.48;50.04
67641;SHT31;54434;50.096;20.082;2023-06-22T08:52:34;31.31;50.60
67641;SHT31;54434;50.096;20.082;2023-06-22T08:55:13;31.19;50.88
67641;SHT31;54434;50.096;20.082;2023-06-22T08:57:50;31.25;51.46
67641;SHT31;54434;50.096;20.082;2023-06-22T09:00:27;31.21;50.40
67641;SHT31;54434;50.096;20.082;2023-06-22T09:03:06;31.21;50.70
67641;SHT31;54434;50.096;20.082;2023-06-22T09:05:43;31.21;50.00
67641;SHT31;54434;50.096;20.082;2023-06-22T09:08:20;31.26;50.95
67641;SHT31;54434;50.096;20.082;2023-06-22T09:10:56;31.41;50.17
67641;SHT31;54434;50.096;20.082;2023-06-22T09:13:34;31.15;49.61
67641;SHT31;54434;50.096;20.082;2023-06-22T09:16:11;30.90;50.47
67641;SHT31;54434;50.096;20.082;2023-06-22T09:18:49;30.93;50.97
67641;SHT31;54434;50.096;20.082;2023-06-22T09:21:26;31.12;51.07
67641;SHT31;54434;50.096;20.082;2023-06-22T09:24:06;31.09;50.76
67641;SHT31;54434;50.096;20.082;2023-06-22T09:26:43;31.16;50.57
67641;SHT31;54434;50.096;20.082;2023-06-22T09:29:20;31.27;50.42
67641;SHT31;54434;50.096;20.082;2023-06-22T09:31:57;31.39;48.81
67641;SHT31;54434;50.096;20.082;2023-06-22T09:34:34;31.38;49.13
67641;SHT31;54434;50.096;20.082;2023-06-22T09:37:11;31.10;49.97
67641;SHT31;54434;50.096;20.082;2023-06-22T09:39:47;30.78;49.52
67641;SHT31;54434;50.096;20.082;2023-06-22T09:42:23;30.74;49.87
67641;SHT31;54434;50.096;20.082;2023-06-22T09:45:00;30.78;50.23
67641;SHT31;54434;50.096;20.082;2023-06-22T09:47:37;30.76;50.00
67641;SHT31;54434;50.096;20.082;2023-06-22T09:50:15;30.82;49.83
67641;SHT31;54434;50.096;20.082;2023-06-22T09:52:51;30.92;50.44
67641;SHT31;54434;50.096;20.082;2023-06-22T09:55:28;30.99;50.80
67641;SHT31;54434;50.096;20.082;2023-06-22T09:58:05;30.97;49.42
67641;SHT31;54434;50.096;20.082;2023-06-22T10:00:41;30.84;49.56
67641;SHT31;54434;50.096;20.082;2023-06-22T10:03:18;30.65;49.68
67641;SHT31;54434;50.096;20.082;2023-06-22T10:05:55;30.53;50.16
67641;SHT31;54434;50.096;20.082;2023-06-22T10:08:31;30.53;50.32
67641;SHT31;54434;50.096;20.082;2023-06-22T10:11:08;30.66;50.48
67641;SHT31;54434;50.096;20.082;2023-06-22T10:13:45;30.70;50.88
67641;SHT31;54434;50.096;20.082;2023-06-22T10:16:21;30.76;50.34
67641;SHT31;54434;50.096;20.082;2023-06-22T10:19:03;30.85;50.65
67641;SHT31;54434;50.096;20.082;2023-06-22T10:21:39;31.02;50.64
67641;SHT31;54434;50.096;20.082;2023-06-22T10:24:16;30.95;48.72
67641;SHT31;54434;50.096;20.082;2023-06-22T10:26:52;30.98;49.50
67641;SHT31;54434;50.096;20.082;2023-06-22T10:29:29;30.94;47.70
67641;SHT31;54434;50.096;20.082;2023-06-22T10:32:07;30.83;48.40
67641;SHT31;54434;50.096;20.082;2023-06-22T10:34:44;30.76;48.36
67641;SHT31;54434;50.096;20.082;2023-06-22T10:37:20;30.64;48.61
67641;SHT31;54434;50.096;20.082;2023-06-22T10:39:57;30.50;49.60
67641;SHT31;54434;50.096;20.082;2023-06-22T10:42:34;30.53;49.94
67641;SHT31;54434;50.096;20.082;2023-06-22T10:45:11;30.43;49.18
67641;SHT31;54434;50.096;20.082;2023-06-22T10:47:48;30.32;48.64
67641;SHT31;54434;50.096;20.082;2023-06-22T10:50:25;30.32;49.65
67641;SHT31;54434;50.096;20.082;2023-06-22T10:53:02;30.30;49.02
67641;SHT31;54434;50.096;20.082;2023-06-22T10:55:38;30.22;49.36
67641;SHT31;54434;50.096;20.082;2023-06-22T10:58:28;30.24;49.89
67641;SHT31;54434;50.096;20.082;2023-06-22T11:01:04;30.20;49.96
67641;SHT31;54434;50.096;20.082;2023-06-22T11:04:00;30.12;49.85
67641;SHT31;54434;50.096;20.082;2023-06-22T11:06:37;30.01;50.08
67641;SHT31;54434;50.096;20.082;2023-06-22T11:09:14;29.91;50.51
67641;SHT31;54434;50.096;20.082;2023-06-22T11:11:59;29.89;50.83
67641;SHT31;54434;50.096;20.082;2023-06-22T11:14:36;29.82;50.18
67641;SHT31;54434;50.096;20.082;2023-06-22T11:17:13;29.78;50.73
67641;SHT31;54434;50.096;20.082;2023-06-22T11:19:49;29.69;49.61
67641;SHT31;54434;50.096;20.082;2023-06-22T11:22:25;29.68;50.54
67641;SHT31;54434;50.096;20.082;2023-06-22T11:25:06;29.72;49.93
67641;SHT31;54434;50.096;20.082;2023-06-22T11:27:44;29.69;50.16
67641;SHT31;54434;50.096;20.082;2023-06-22T11:30:21;29.65;49.95
67641;SHT31;54434;50.096;20.082;2023-06-22T11:32:58;29.60;50.16
67641;SHT31;54434;50.096;20.082;2023-06-22T11:35:35;29.59;49.92
67641;SHT31;54434;50.096;20.082;2023-06-22T11:38:12;29.61;49.40
67641;SHT31;54434;50.096;20.082;2023-06-22T11:40:48;29.58;49.27
67641;SHT31;54434;50.096;20.082;2023-06-22T11:43:25;29.62;49.62
67641;SHT31;54434;50.096;20.082;2023-06-22T11:46:01;29.60;49.13
67641;SHT31;54434;50.096;20.082;2023-06-22T11:48:38;29.57;49.51
67641;SHT31;54434;50.096;20.082;2023-06-22T11:51:15;29.62;49.73
67641;SHT31;54434;50.096;20.082;2023-06-22T11:53:52;29.65;50.14
67641;SHT31;54434;50.096;20.082;2023-06-22T11:56:28;29.69;49.58
67641;SHT31;54434;50.096;20.082;2023-06-22T11:59:05;29.64;48.21
67641;SHT31;54434;50.096;20.082;2023-06-22T12:01:42;29.61;49.11
67641;SHT31;54434;50.096;20.082;2023-06-22T12:04:19;29.66;49.13
67641;SHT31;54434;50.096;20.082;2023-06-22T12:06:55;29.65;48.96
67641;SHT31;54434;50.096;20.082;2023-06-22T12:09:32;29.67;49.05
67641;SHT31;54434;50.096;20.082;2023-06-22T12:12:10;29.73;50.24
67641;SHT31;54434;50.096;20.082;2023-06-22T12:14:46;29.75;48.95
67641;SHT31;54434;50.096;20.082;2023-06-22T12:17:22;29.71;48.73
67641;SHT31;54434;50.096;20.082;2023-06-22T12:19:59;29.69;48.69
67641;SHT31;54434;50.096;20.082;2023-06-22T12:22:40;29.68;48.43
67641;SHT31;54434;50.096;20.082;2023-06-22T12:25:17;29.63;48.01
67641;SHT31;54434;50.096;20.082;2023-06-22T12:27:55;29.63;49.59
67641;SHT31;54434;50.096;20.082;2023-06-22T12:30:32;29.70;48.46
67641;SHT31;54434;50.096;20.082;2023-06-22T12:33:08;29.61;48.10
67641;SHT31;54434;50.096;20.082;2023-06-22T12:35:45;29.55;48.06
67641;SHT31;54434;50.096;20.082;2023-06-22T12:38:21;29.54;48.32
67641;SHT31;54434;50.096;20.082;2023-06-22T12:40:58;29.52;48.59
67641;SHT31;54434;50.096;20.082;2023-06-22T12:43:34;29.47;48.10
67641;SHT31;54434;50.096;20.082;2023-06-22T12:46:11;29.43;47.97
67641;SHT31;54434;50.096;20.082;2023-06-22T12:48:47;29.41;47.95
67641;SHT31;54434;50.096;20.082;2023-06-22T12:51:24;29.43;49.20
67641;SHT31;54434;50.096;20.082;2023-06-22T12:54:01;29.51;49.77
67641;SHT31;54434;50.096;20.082;2023-06-22T12:56:38;29.57;49.08
67641;SHT31;54434;50.096;20.082;2023-06-22T12:59:15;29.55;48.22
67641;SHT31;54434;50.096;20.082;2023-06-22T13:01:52;29.49;48.52
67641;SHT31;54434;50.096;20.082;2023-06-22T13:04:29;29.43;48.52
67641;SHT31;54434;50.096;20.082;2023-06-22T13:07:05;29.40;48.81
67641;SHT31;54434;50.096;20.082;2023-06-22T13:09:45;29.41;49.56
67641;SHT31;54434;50.096;20.082;2023-06-22T13:12:24;29.44;49.18
67641;SHT31;54434;50.096;20.082;2023-06-22T13:15:00;29.44;48.98
67641;SHT31;54434;50.096;20.082;2023-06-22T13:17:39;29.40;48.58
67641;SHT31;54434;50.096;20.082;2023-06-22T13:20:16;29.38;49.27
67641;SHT31;54434;50.096;20.082;2023-06-22T13:22:52;29.39;49.13
67641;SHT31;54434;50.096;20.082;2023-06-22T13:25:29;29.43;49.63
67641;SHT31;54434;50.096;20.082;2023-06-22T13:28:06;29.45;49.54
67641;SHT31;54434;50.096;20.082;2023-06-22T13:30:58;29.45;49.07
67641;SHT31;54434;50.096;20.082;2023-06-22T13:33:35;29.45;49.22
67641;SHT31;54434;50.096;20.082;2023-06-22T13:36:12;29.48;49.38
67641;SHT31;54434;50.096;20.082;2023-06-22T13:38:49;29.52;49.76
67641;SHT31;54434;50.096;20.082;2023-06-22T13:41:26;29.52;49.05
67641;SHT31;54434;50.096;20.082;2023-06-22T13:44:03;29.48;49.28
67641;SHT31;54434;50.096;20.082;2023-06-22T13:46:39;29.53;49.76
67641;SHT31;54434;50.096;20.082;2023-06-22T13:49:16;29.55;49.11
67641;SHT31;54434;50.096;20.082;2023-06-22T13:51:53;29.48;48.64
67641;SHT31;54434;50.096;20.082;2023-06-22T13:54:30;29.42;48.59
67641;SHT31;54434;50.096;20.082;2023-06-22T13:57:08;29.38;48.68
67641;SHT31;54434;50.096;20.082;2023-06-22T13:59:44;29.38;48.95
67641;SHT31;54434;50.096;20.082;2023-06-22T14:02:21;29.39;49.37
67641;SHT31;54434;50.096;20.082;2023-06-22T14:04:59;29.35;48.97
67641;SHT31;54434;50.096;20.082;2023-06-22T14:07:36;29.31;49.28
67641;SHT31;54434;50.096;20.082;2023-06-22T14:10:12;29.31;49.34
67641;SHT31;54434;50.096;20.082;2023-06-22T14:12:49;29.29;49.18
67641;SHT31;54434;50.096;20.082;2023-06-22T14:15:27;29.30;49.71
67641;SHT31;54434;50.096;20.082;2023-06-22T14:18:04;29.28;49.48
67641;SHT31;54434;50.096;20.082;2023-06-22T14:20:40;29.28;49.49
67641;SHT31;54434;50.096;20.082;2023-06-22T14:23:17;29.29;50.03
67641;SHT31;54434;50.096;20.082;2023-06-22T14:25:53;29.26;49.35
67641;SHT31;54434;50.096;20.082;2023-06-22T14:28:30;29.20;49.61
67641;SHT31;54434;50.096;20.082;2023-06-22T14:31:06;29.18;49.36
67641;SHT31;54434;50.096;20.082;2023-06-22T14:33:46;29.16;49.61
67641;SHT31;54434;50.096;20.082;2023-06-22T14:36:24;29.19;49.47
67641;SHT31;54434;50.096;20.082;2023-06-22T14:39:00;29.20;48.48
67641;SHT31;54434;50.096;20.082;2023-06-22T14:41:37;29.13;48.18
67641;SHT31;54434;50.096;20.082;2023-06-22T14:44:13;29.08;48.66
67641;SHT31;54434;50.096;20.082;2023-06-22T14:46:50;29.06;49.11
67641;SHT31;54434;50.096;20.082;2023-06-22T14:49:26;29.05;49.04
67641;SHT31;54434;50.096;20.082;2023-06-22T14:52:03;29.06;49.44
67641;SHT31;54434;50.096;20.082;2023-06-22T14:54:40;29.10;49.39
67641;SHT31;54434;50.096;20.082;2023-06-22T14:57:17;29.10;49.20
67641;SHT31;54434;50.096;20.082;2023-06-22T14:59:54;29.09;48.93
67641;SHT31;54434;50.096;20.082;2023-06-22T15:02:33;29.06;48.68
67641;SHT31;54434;50.096;20.082;2023-06-22T15:05:10;29.05;48.97
67641;SHT31;54434;50.096;20.082;2023-06-22T15:07:47;29.05;48.73
67641;SHT31;54434;50.096;20.082;2023-06-22T15:10:24;29.05;48.91
67641;SHT31;54434;50.096;20.082;2023-06-22T15:13:01;29.02;49.27
67641;SHT31;54434;50.096;20.082;2023-06-22T15:15:38;29.05;49.32
67641;SHT31;54434;50.096;20.082;2023-06-22T15:18:14;29.04;49.37
67641;SHT31;54434;50.096;20.082;2023-06-22T15:20:52;29.03;48.84
67641;SHT31;54434;50.096;20.082;2023-06-22T15:23:30;29.01;48.87
67641;SHT31;54434;50.096;20.082;2023-06-22T15:26:07;29.01;48.91
67641;SHT31;54434;50.096;20.082;2023-06-22T15:28:43;28.98;49.01
67641;SHT31;54434;50.096;20.082;2023-06-22T15:31:20;28.96;49.46
67641;SHT31;54434;50.096;20.082;2023-06-22T15:33:57;28.92;48.96
67641;SHT31;54434;50.096;20.082;2023-06-22T15:36:35;28.89;49.16
67641;SHT31;54434;50.096;20.082;2023-06-22T15:39:11;28.88;49.12
67641;SHT31;54434;50.096;20.082;2023-06-22T15:41:49;28.86;49.43
67641;SHT31;54434;50.096;20.082;2023-06-22T15:44:26;28.87;49.15
67641;SHT31;54434;50.096;20.082;2023-06-22T15:47:03;28.88;49.06
67641;SHT31;54434;50.096;20.082;2023-06-22T15:49:40;28.87;49.13
67641;SHT31;54434;50.096;20.082;2023-06-22T15:52:17;28.87;49.62
67641;SHT31;54434;50.096;20.082;2023-06-22T15:54:53;28.90;49.84
67641;SHT31;54434;50.096;20.082;2023-06-22T15:57:32;28.90;49.60
67641;SHT31;54434;50.096;20.082;2023-06-22T16:00:11;28.88;49.54
67641;SHT31;54434;50.096;20.082;2023-06-22T16:02:50;28.84;49.28
67641;SHT31;54434;50.096;20.082;2023-06-22T16:05:27;28.82;49.51
67641;SHT31;54434;50.096;20.082;2023-06-22T16:08:08;28.80;49.38
67641;SHT31;54434;50.096;20.082;2023-06-22T16:10:45;28.80;49.35
67641;SHT31;54434;50.096;20.082;2023-06-22T16:13:21;28.78;49.40
67641;SHT31;54434;50.096;20.082;2023-06-22T16:15:58;28.77;49.35
67641;SHT31;54434;50.096;20.082;2023-06-22T16:18:34;28.76;49.25
67641;SHT31;54434;50.096;20.082;2023-06-22T16:21:11;28.73;49.08